sensor_id;sensor_type;location;lat;lon;timestamp;pressure;altitude;pressure_sealevel;temperature;humidity
62634;BME280;48704;50.534;6.442;2023-05-19T00:00:31;96323.06;;;6.90;100.00
62634;BME280;48704;50.534;6.442;2023-05-19T00:02:57;96329.91;;;6.69;100.00
62634;BME280;48704;50.534;6.442;2023-05-19T00:05:24;96326.56;;;6.61;100.00
62634;BME280;48704;50.534;6.442;2023-05-19T00:07:57;96328.63;;;6.57;100.00
62634;BME280;48704;50.534;6.442;2023-05-19T00:10:23;96329.34;;;6.61;100.00
62634;BME280;48704;50.534;6.442;2023-05-19T00:12:49;96332.78;;;6.49;100.00
62634;BME280;48704;50.534;6.442;2023-05-19T00:15:15;96334.00;;;6.32;100.00
62634;BME280;48704;50.534;6.442;2023-05-19T00:17:40;96326.22;;;6.27;100.00
62634;BME280;48704;50.534;6.442;2023-05-19T00:20:07;96323.69;;;6.32;100.00
62634;BME280;48704;50.534;6.442;2023-05-19T00:22:32;96323.09;;;6.25;100.00
62634;BME280;48704;50.534;6.442;2023-05-19T00:24:58;96327.94;;;6.37;100.00
62634;BME280;48704;50.534;6.442;2023-05-19T00:27:23;96322.91;;;6.32;100.00
62634;BME280;48704;50.534;6.442;2023-05-19T00:29:48;96328.72;;;6.21;100.00
62634;BME280;48704;50.534;6.442;2023-05-19T00:32:14;96318.34;;;6.25;100.00
62634;BME280;48704;50.534;6.442;2023-05-19T00:34:40;96322.94;;;6.48;100.00
62634;BME280;48704;50.534;6.442;2023-05-19T00:37:05;96323.81;;;6.29;100.00
62634;BME280;48704;50.534;6.442;2023-05-19T00:39:30;96330.91;;;6.30;100.00
62634;BME280;48704;50.534;6.442;2023-05-19T00:41:55;96320.00;;;6.23;100.00
62634;BME280;48704;50.534;6.442;2023-05-19T00:44:21;96330.59;;;6.08;100.00
62634;BME280;48704;50.534;6.442;2023-05-19T00:46:46;96335.34;;;6.08;100.00
62634;BME280;48704;50.534;6.442;2023-05-19T00:49:11;96336.38;;;5.97;100.00
62634;BME280;48704;50.534;6.442;2023-05-19T00:51:37;96335.41;;;5.88;100.00
62634;BME280;48704;50.534;6.442;2023-05-19T00:54:02;96329.50;;;5.86;100.00
62634;BME280;48704;50.534;6.442;2023-05-19T00:56:28;96328.19;;;5.74;100.00
62634;BME280;48704;50.534;6.442;2023-05-19T00:58:53;96330.50;;;5.76;100.00
62634;BME280;48704;50.534;6.442;2023-05-19T01:01:19;96326.41;;;5.64;100.00
62634;BME280;48704;50.534;6.442;2023-05-19T01:03:46;96329.25;;;5.60;100.00
62634;BME280;48704;50.534;6.442;2023-05-19T01:06:12;96320.47;;;5.65;100.00
62634;BME280;48704;50.534;6.442;2023-05-19T01:08:38;96321.31;;;5.62;100.00
62634;BME280;48704;50.534;6.442;2023-05-19T01:11:04;96328.97;;;5.75;100.00
62634;BME280;48704;50.534;6.442;2023-05-19T01:13:30;96323.75;;;5.96;100.00
62634;BME280;48704;50.534;6.442;2023-05-19T01:18:43;96315.19;;;5.71;100.00
62634;BME280;48704;50.534;6.442;2023-05-19T01:21:39;96309.47;;;5.62;100.00
62634;BME280;48704;50.534;6.442;2023-05-19T01:24:29;96307.66;;;5.35;100.00
62634;BME280;48704;50.534;6.442;2023-05-19T01:27:10;96311.34;;;5.49;100.00
62634;BME280;48704;50.534;6.442;2023-05-19T01:32:17;96308.66;;;5.45;100.00
62634;BME280;48704;50.534;6.442;2023-05-19T01:34:45;96307.56;;;5.59;100.00
62634;BME280;48704;50.534;6.442;2023-05-19T01:37:13;96302.78;;;5.43;100.00
62634;BME280;48704;50.534;6.442;2023-05-19T01:39:40;96296.94;;;5.57;100.00
62634;BME280;48704;50.534;6.442;2023-05-19T01:42:06;96292.56;;;5.76;100.00
62634;BME280;48704;50.534;6.442;2023-05-19T01:44:32;96296.84;;;5.61;100.00
62634;BME280;48704;50.534;6.442;2023-05-19T01:46:58;96297.03;;;5.54;100.00
62634;BME280;48704;50.534;6.442;2023-05-19T01:49:24;96298.25;;;5.69;100.00
62634;BME280;48704;50.534;6.442;2023-05-19T01:51:51;96291.50;;;5.54;100.00
62634;BME280;48704;50.534;6.442;2023-05-19T01:54:17;96294.75;;;5.49;100.00
62634;BME280;48704;50.534;6.442;2023-05-19T01:56:51;96290.09;;;5.46;100.00
62634;BME280;48704;50.534;6.442;2023-05-19T01:59:36;96292.66;;;5.36;100.00
62634;BME280;48704;50.534;6.442;2023-05-19T02:02:20;96291.38;;;5.21;100.00
62634;BME280;48704;50.534;6.442;2023-05-19T02:04:50;96296.88;;;5.21;100.00
62634;BME280;48704;50.534;6.442;2023-05-19T02:10:28;96294.47;;;5.23;100.00
62634;BME280;48704;50.534;6.442;2023-05-19T02:13:00;96289.03;;;5.00;100.00
62634;BME280;48704;50.534;6.442;2023-05-19T02:15:33;96284.44;;;5.13;100.00
62634;BME280;48704;50.534;6.442;2023-05-19T02:18:03;96289.97;;;5.13;100.00
62634;BME280;48704;50.534;6.442;2023-05-19T02:20:29;96293.84;;;4.96;100.00
62634;BME280;48704;50.534;6.442;2023-05-19T02:22:54;96301.28;;;4.99;100.00
62634;BME280;48704;50.534;6.442;2023-05-19T02:25:20;96293.34;;;5.01;100.00
62634;BME280;48704;50.534;6.442;2023-05-19T02:27:45;96288.94;;;4.84;100.00
62634;BME280;48704;50.534;6.442;2023-05-19T02:30:13;96284.06;;;4.72;100.00
62634;BME280;48704;50.534;6.442;2023-05-19T02:32:38;96283.00;;;4.65;100.00
62634;BME280;48704;50.534;6.442;2023-05-19T02:35:04;96278.53;;;4.72;100.00
62634;BME280;48704;50.534;6.442;2023-05-19T02:37:30;96281.72;;;4.90;100.00
62634;BME280;48704;50.534;6.442;2023-05-19T02:39:56;96280.25;;;4.42;100.00
62634;BME280;48704;50.534;6.442;2023-05-19T02:42:22;96281.31;;;4.72;100.00
62634;BME280;48704;50.534;6.442;2023-05-19T02:44:47;96274.09;;;4.78;100.00
62634;BME280;48704;50.534;6.442;2023-05-19T02:47:13;96275.31;;;4.53;100.00
62634;BME280;48704;50.534;6.442;2023-05-19T02:49:38;96280.50;;;4.28;100.00
62634;BME280;48704;50.534;6.442;2023-05-19T02:52:05;96274.56;;;4.06;100.00
62634;BME280;48704;50.534;6.442;2023-05-19T02:54:31;96268.00;;;4.20;100.00
62634;BME280;48704;50.534;6.442;2023-05-19T02:56:57;96271.03;;;4.29;100.00
62634;BME280;48704;50.534;6.442;2023-05-19T02:59:23;96268.13;;;4.36;100.00
62634;BME280;48704;50.534;6.442;2023-05-19T03:01:49;96273.78;;;4.06;100.00
62634;BME280;48704;50.534;6.442;2023-05-19T03:04:15;96261.19;;;4.05;100.00
62634;BME280;48704;50.534;6.442;2023-05-19T03:06:40;96264.94;;;4.14;100.00
62634;BME280;48704;50.534;6.442;2023-05-19T03:09:06;96269.88;;;4.03;100.00
62634;BME280;48704;50.534;6.442;2023-05-19T03:11:32;96263.94;;;4.05;100.00
62634;BME280;48704;50.534;6.442;2023-05-19T03:13:57;96272.09;;;4.12;100.00
62634;BME280;48704;50.534;6.442;2023-05-19T03:16:22;96264.78;;;4.25;100.00
62634;BME280;48704;50.534;6.442;2023-05-19T03:18:48;96268.03;;;4.43;100.00
62634;BME280;48704;50.534;6.442;2023-05-19T03:21:13;96268.56;;;4.34;100.00
62634;BME280;48704;50.534;6.442;2023-05-19T03:23:39;96273.53;;;4.20;100.00
62634;BME280;48704;50.534;6.442;2023-05-19T03:26:04;96265.72;;;4.15;100.00
62634;BME280;48704;50.534;6.442;2023-05-19T03:28:30;96276.94;;;4.27;100.00
62634;BME280;48704;50.534;6.442;2023-05-19T03:30:55;96277.38;;;4.26;100.00
62634;BME280;48704;50.534;6.442;2023-05-19T03:33:20;96272.03;;;4.15;100.00
62634;BME280;48704;50.534;6.442;2023-05-19T03:35:46;96266.19;;;4.10;100.00
62634;BME280;48704;50.534;6.442;2023-05-19T03:38:11;96265.50;;;4.06;100.00
62634;BME280;48704;50.534;6.442;2023-05-19T03:40:37;96265.25;;;3.96;100.00
62634;BME280;48704;50.534;6.442;2023-05-19T03:43:02;96266.34;;;4.02;100.00
62634;BME280;48704;50.534;6.442;2023-05-19T03:45:27;96274.63;;;4.02;100.00
62634;BME280;48704;50.534;6.442;2023-05-19T03:47:53;96268.97;;;4.10;100.00
62634;BME280;48704;50.534;6.442;2023-05-19T03:50:18;96274.25;;;4.24;100.00
62634;BME280;48704;50.534;6.442;2023-05-19T03:52:43;96272.81;;;4.16;100.00
62634;BME280;48704;50.534;6.442;2023-05-19T03:55:10;96275.09;;;4.21;100.00
62634;BME280;48704;50.534;6.442;2023-05-19T03:57:36;96274.38;;;4.17;100.00
62634;BME280;48704;50.534;6.442;2023-05-19T04:00:03;96274.56;;;4.29;100.00
62634;BME280;48704;50.534;6.442;2023-05-19T04:02:29;96275.75;;;4.28;100.00
62634;BME280;48704;50.534;6.442;2023-05-19T04:04:55;96272.69;;;4.23;100.00
62634;BME280;48704;50.534;6.442;2023-05-19T04:07:21;96269.22;;;4.19;100.00
62634;BME280;48704;50.534;6.442;2023-05-19T04:09:46;96276.53;;;4.29;100.00
62634;BME280;48704;50.534;6.442;2023-05-19T04:12:12;96284.22;;;4.41;100.00
62634;BME280;48704;50.534;6.442;2023-05-19T04:14:37;96272.34;;;4.44;100.00
62634;BME280;48704;50.534;6.442;2023-05-19T04:17:03;96272.91;;;4.55;100.00
62634;BME280;48704;50.534;6.442;2023-05-19T04:19:28;96281.47;;;4.41;100.00
62634;BME280;48704;50.534;6.442;2023-05-19T04:21:53;96278.56;;;4.48;100.00
62634;BME280;48704;50.534;6.442;2023-05-19T04:24:19;96274.03;;;4.38;100.00
62634;BME280;48704;50.534;6.442;2023-05-19T04:26:44;96284.06;;;4.48;100.00
62634;BME280;48704;50.534;6.442;2023-05-19T04:29:11;96279.88;;;4.63;100.00
62634;BME280;48704;50.534;6.442;2023-05-19T04:31:38;96279.75;;;4.70;100.00
62634;BME280;48704;50.534;6.442;2023-05-19T04:34:05;96277.91;;;4.84;100.00
62634;BME280;48704;50.534;6.442;2023-05-19T04:36:32;96279.63;;;4.78;100.00
62634;BME280;48704;50.534;6.442;2023-05-19T04:38:58;96287.25;;;4.90;100.00
62634;BME280;48704;50.534;6.442;2023-05-19T04:41:26;96285.22;;;4.94;100.00
62634;BME280;48704;50.534;6.442;2023-05-19T04:43:51;96283.16;;;4.98;100.00
62634;BME280;48704;50.534;6.442;2023-05-19T04:46:17;96285.28;;;5.10;100.00
62634;BME280;48704;50.534;6.442;2023-05-19T04:48:42;96281.97;;;5.19;100.00
62634;BME280;48704;50.534;6.442;2023-05-19T04:51:08;96288.81;;;5.30;100.00
62634;BME280;48704;50.534;6.442;2023-05-19T04:53:33;96281.38;;;5.27;100.00
62634;BME280;48704;50.534;6.442;2023-05-19T04:55:59;96279.69;;;5.33;100.00
62634;BME280;48704;50.534;6.442;2023-05-19T04:58:27;96284.13;;;5.47;100.00
62634;BME280;48704;50.534;6.442;2023-05-19T05:00:53;96286.75;;;5.54;100.00
62634;BME280;48704;50.534;6.442;2023-05-19T05:03:20;96284.09;;;5.67;100.00
62634;BME280;48704;50.534;6.442;2023-05-19T05:05:47;96275.81;;;5.83;100.00
62634;BME280;48704;50.534;6.442;2023-05-19T05:08:12;96283.47;;;5.95;100.00
62634;BME280;48704;50.534;6.442;2023-05-19T05:10:39;96289.69;;;5.99;100.00
62634;BME280;48704;50.534;6.442;2023-05-19T05:13:05;96281.66;;;6.05;100.00
62634;BME280;48704;50.534;6.442;2023-05-19T05:15:31;96276.03;;;6.09;100.00
62634;BME280;48704;50.534;6.442;2023-05-19T05:17:56;96279.84;;;6.15;100.00
62634;BME280;48704;50.534;6.442;2023-05-19T05:20:22;96281.25;;;6.23;100.00
62634;BME280;48704;50.534;6.442;2023-05-19T05:22:48;96283.16;;;6.26;100.00
62634;BME280;48704;50.534;6.442;2023-05-19T05:25:14;96280.31;;;6.29;100.00
62634;BME280;48704;50.534;6.442;2023-05-19T05:27:40;96278.28;;;6.46;100.00
62634;BME280;48704;50.534;6.442;2023-05-19T05:30:06;96270.09;;;6.71;100.00
62634;BME280;48704;50.534;6.442;2023-05-19T05:32:31;96277.06;;;6.92;100.00
62634;BME280;48704;50.534;6.442;2023-05-19T05:34:57;96275.78;;;7.10;100.00
62634;BME280;48704;50.534;6.442;2023-05-19T05:37:22;96277.25;;;7.14;100.00
62634;BME280;48704;50.534;6.442;2023-05-19T05:39:48;96275.03;;;7.09;100.00
62634;BME280;48704;50.534;6.442;2023-05-19T05:42:13;96276.88;;;7.28;100.00
62634;BME280;48704;50.534;6.442;2023-05-19T05:44:38;96274.13;;;7.41;100.00
62634;BME280;48704;50.534;6.442;2023-05-19T05:47:04;96275.91;;;7.48;100.00
62634;BME280;48704;50.534;6.442;2023-05-19T05:49:29;96276.03;;;7.57;100.00
62634;BME280;48704;50.534;6.442;2023-05-19T05:51:55;96271.97;;;7.74;100.00
62634;BME280;48704;50.534;6.442;2023-05-19T05:54:21;96269.41;;;7.92;100.00
62634;BME280;48704;50.534;6.442;2023-05-19T05:56:47;96261.09;;;8.05;100.00
62634;BME280;48704;50.534;6.442;2023-05-19T05:59:13;96272.03;;;8.21;100.00
62634;BME280;48704;50.534;6.442;2023-05-19T06:01:39;96270.53;;;8.33;100.00
62634;BME280;48704;50.534;6.442;2023-05-19T06:04:06;96266.94;;;8.20;100.00
62634;BME280;48704;50.534;6.442;2023-05-19T06:06:31;96264.72;;;8.40;100.00
62634;BME280;48704;50.534;6.442;2023-05-19T06:08:57;96261.63;;;8.38;100.00
62634;BME280;48704;50.534;6.442;2023-05-19T06:11:22;96265.06;;;8.42;100.00
62634;BME280;48704;50.534;6.442;2023-05-19T06:13:47;96268.28;;;8.28;100.00
62634;BME280;48704;50.534;6.442;2023-05-19T06:16:12;96267.34;;;8.56;100.00
62634;BME280;48704;50.534;6.442;2023-05-19T06:18:38;96265.56;;;8.62;100.00
62634;BME280;48704;50.534;6.442;2023-05-19T06:21:03;96263.28;;;8.83;100.00
62634;BME280;48704;50.534;6.442;2023-05-19T06:23:31;96258.97;;;8.82;100.00
62634;BME280;48704;50.534;6.442;2023-05-19T06:25:57;96253.97;;;8.77;100.00
62634;BME280;48704;50.534;6.442;2023-05-19T06:28:22;96258.53;;;9.05;100.00
62634;BME280;48704;50.534;6.442;2023-05-19T06:30:47;96258.66;;;9.01;100.00
62634;BME280;48704;50.534;6.442;2023-05-19T06:33:13;96251.94;;;9.12;100.00
62634;BME280;48704;50.534;6.442;2023-05-19T06:35:38;96258.06;;;9.07;100.00
62634;BME280;48704;50.534;6.442;2023-05-19T06:38:04;96263.59;;;9.19;100.00
62634;BME280;48704;50.534;6.442;2023-05-19T06:40:29;96257.47;;;9.33;100.00
62634;BME280;48704;50.534;6.442;2023-05-19T06:42:54;96263.94;;;9.30;100.00
62634;BME280;48704;50.534;6.442;2023-05-19T06:45:20;96261.13;;;9.21;100.00
62634;BME280;48704;50.534;6.442;2023-05-19T06:47:47;96261.78;;;9.25;100.00
62634;BME280;48704;50.534;6.442;2023-05-19T06:50:13;96256.00;;;9.42;100.00
62634;BME280;48704;50.534;6.442;2023-05-19T06:52:39;96263.94;;;9.52;100.00
62634;BME280;48704;50.534;6.442;2023-05-19T06:55:05;96263.81;;;9.56;100.00
62634;BME280;48704;50.534;6.442;2023-05-19T06:57:30;96264.59;;;9.56;100.00
62634;BME280;48704;50.534;6.442;2023-05-19T06:59:55;96261.44;;;9.76;100.00
62634;BME280;48704;50.534;6.442;2023-05-19T07:02:21;96265.47;;;9.75;100.00
62634;BME280;48704;50.534;6.442;2023-05-19T07:04:46;96266.66;;;9.65;100.00
62634;BME280;48704;50.534;6.442;2023-05-19T07:07:12;96269.38;;;9.56;100.00
62634;BME280;48704;50.534;6.442;2023-05-19T07:09:37;96272.59;;;9.76;100.00
62634;BME280;48704;50.534;6.442;2023-05-19T07:12:03;96262.97;;;9.99;100.00
62634;BME280;48704;50.534;6.442;2023-05-19T07:14:28;96264.91;;;10.20;100.00
62634;BME280;48704;50.534;6.442;2023-05-19T07:16:53;96258.75;;;10.25;100.00
62634;BME280;48704;50.534;6.442;2023-05-19T07:19:18;96264.31;;;10.25;100.00
62634;BME280;48704;50.534;6.442;2023-05-19T07:21:45;96261.06;;;10.27;100.00
62634;BME280;48704;50.534;6.442;2023-05-19T07:24:10;96259.88;;;10.37;100.00
62634;BME280;48704;50.534;6.442;2023-05-19T07:26:35;96260.53;;;10.59;100.00
62634;BME280;48704;50.534;6.442;2023-05-19T07:29:01;96272.94;;;10.67;99.78
62634;BME280;48704;50.534;6.442;2023-05-19T07:31:26;96259.94;;;10.74;100.00
62634;BME280;48704;50.534;6.442;2023-05-19T07:33:51;96260.25;;;10.85;98.10
62634;BME280;48704;50.534;6.442;2023-05-19T07:36:17;96256.53;;;10.97;97.02
62634;BME280;48704;50.534;6.442;2023-05-19T07:38:42;96262.09;;;10.88;96.60
62634;BME280;48704;50.534;6.442;2023-05-19T07:41:08;96261.50;;;10.93;95.46
62634;BME280;48704;50.534;6.442;2023-05-19T07:43:33;96262.75;;;11.01;96.99
62634;BME280;48704;50.534;6.442;2023-05-19T07:45:58;96258.72;;;11.11;94.76
62634;BME280;48704;50.534;6.442;2023-05-19T07:48:24;96255.91;;;11.29;94.01
62634;BME280;48704;50.534;6.442;2023-05-19T07:50:51;96248.41;;;11.54;93.03
62634;BME280;48704;50.534;6.442;2023-05-19T07:53:17;96248.09;;;11.61;92.29
62634;BME280;48704;50.534;6.442;2023-05-19T07:55:42;96248.13;;;11.52;90.03
62634;BME280;48704;50.534;6.442;2023-05-19T07:58:08;96251.19;;;11.63;88.77
62634;BME280;48704;50.534;6.442;2023-05-19T08:00:33;96241.41;;;11.86;86.10
62634;BME280;48704;50.534;6.442;2023-05-19T08:02:58;96248.34;;;11.90;90.13
62634;BME280;48704;50.534;6.442;2023-05-19T08:05:24;96253.59;;;11.97;86.35
62634;BME280;48704;50.534;6.442;2023-05-19T08:07:52;96245.78;;;11.78;85.71
62634;BME280;48704;50.534;6.442;2023-05-19T08:10:17;96240.22;;;12.11;84.01
62634;BME280;48704;50.534;6.442;2023-05-19T08:12:42;96240.06;;;12.14;82.75
62634;BME280;48704;50.534;6.442;2023-05-19T08:15:10;96243.91;;;12.17;81.91
62634;BME280;48704;50.534;6.442;2023-05-19T08:17:36;96243.66;;;12.05;84.46
62634;BME280;48704;50.534;6.442;2023-05-19T08:20:03;96251.19;;;12.23;82.17
62634;BME280;48704;50.534;6.442;2023-05-19T08:22:30;96244.53;;;12.21;82.80
62634;BME280;48704;50.534;6.442;2023-05-19T08:24:55;96242.69;;;12.42;83.02
62634;BME280;48704;50.534;6.442;2023-05-19T08:27:21;96243.13;;;12.49;79.33
62634;BME280;48704;50.534;6.442;2023-05-19T08:29:46;96245.78;;;12.44;81.83
62634;BME280;48704;50.534;6.442;2023-05-19T08:32:11;96242.78;;;12.56;82.90
62634;BME280;48704;50.534;6.442;2023-05-19T08:34:37;96236.88;;;12.54;82.01
62634;BME280;48704;50.534;6.442;2023-05-19T08:37:02;96238.78;;;12.48;81.90
62634;BME280;48704;50.534;6.442;2023-05-19T08:39:27;96240.03;;;12.71;78.66
62634;BME280;48704;50.534;6.442;2023-05-19T08:41:53;96237.53;;;12.97;77.05
62634;BME280;48704;50.534;6.442;2023-05-19T08:44:18;96233.91;;;12.82;76.06
62634;BME280;48704;50.534;6.442;2023-05-19T08:46:46;96236.28;;;12.74;81.58
62634;BME280;48704;50.534;6.442;2023-05-19T08:49:13;96228.84;;;12.95;81.46
62634;BME280;48704;50.534;6.442;2023-05-19T08:51:50;96237.13;;;12.89;74.67
62634;BME280;48704;50.534;6.442;2023-05-19T08:54:19;96229.03;;;13.06;73.41
62634;BME280;48704;50.534;6.442;2023-05-19T08:56:49;96228.56;;;13.31;75.92
62634;BME280;48704;50.534;6.442;2023-05-19T08:59:16;96232.78;;;13.42;75.76
62634;BME280;48704;50.534;6.442;2023-05-19T09:01:44;96230.47;;;13.40;74.09
62634;BME280;48704;50.534;6.442;2023-05-19T09:04:14;96226.44;;;13.56;70.12
62634;BME280;48704;50.534;6.442;2023-05-19T09:06:41;96221.22;;;13.49;75.14
62634;BME280;48704;50.534;6.442;2023-05-19T09:09:06;96216.31;;;13.73;71.14
62634;BME280;48704;50.534;6.442;2023-05-19T09:11:33;96225.28;;;13.77;70.57
62634;BME280;48704;50.534;6.442;2023-05-19T09:13:59;96221.50;;;13.95;71.70
62634;BME280;48704;50.534;6.442;2023-05-19T09:16:25;96227.19;;;14.00;70.57
62634;BME280;48704;50.534;6.442;2023-05-19T09:18:56;96229.06;;;14.24;70.65
62634;BME280;48704;50.534;6.442;2023-05-19T09:21:31;96221.81;;;14.32;71.90
62634;BME280;48704;50.534;6.442;2023-05-19T09:24:04;96221.56;;;14.15;68.93
62634;BME280;48704;50.534;6.442;2023-05-19T09:26:38;96217.06;;;14.38;66.00
62634;BME280;48704;50.534;6.442;2023-05-19T09:29:13;96216.69;;;14.45;67.61
62634;BME280;48704;50.534;6.442;2023-05-19T09:31:46;96215.72;;;14.33;69.12
62634;BME280;48704;50.534;6.442;2023-05-19T09:34:13;96218.66;;;14.59;70.51
62634;BME280;48704;50.534;6.442;2023-05-19T09:36:41;96208.03;;;14.84;70.27
62634;BME280;48704;50.534;6.442;2023-05-19T09:39:17;96207.78;;;14.87;64.80
62634;BME280;48704;50.534;6.442;2023-05-19T09:41:43;96219.72;;;15.02;65.48
62634;BME280;48704;50.534;6.442;2023-05-19T09:44:14;96214.47;;;15.10;62.94
62634;BME280;48704;50.534;6.442;2023-05-19T09:46:49;96213.75;;;15.15;65.87
62634;BME280;48704;50.534;6.442;2023-05-19T09:49:44;96211.28;;;15.49;64.00
62634;BME280;48704;50.534;6.442;2023-05-19T09:52:14;96218.00;;;15.31;62.70
62634;BME280;48704;50.534;6.442;2023-05-19T09:54:40;96204.44;;;15.29;66.00
62634;BME280;48704;50.534;6.442;2023-05-19T09:57:05;96208.34;;;14.91;68.78
62634;BME280;48704;50.534;6.442;2023-05-19T09:59:32;96210.03;;;15.50;65.53
62634;BME280;48704;50.534;6.442;2023-05-19T10:01:58;96205.69;;;15.49;64.42
62634;BME280;48704;50.534;6.442;2023-05-19T10:04:26;96200.56;;;15.73;63.67
62634;BME280;48704;50.534;6.442;2023-05-19T10:06:56;96206.03;;;15.56;63.76
62634;BME280;48704;50.534;6.442;2023-05-19T10:09:27;96210.59;;;15.54;61.79
62634;BME280;48704;50.534;6.442;2023-05-19T10:11:54;96205.13;;;15.96;64.17
62634;BME280;48704;50.534;6.442;2023-05-19T10:14:22;96194.03;;;16.61;64.33
62634;BME280;48704;50.534;6.442;2023-05-19T10:16:52;96190.81;;;15.68;62.17
62634;BME280;48704;50.534;6.442;2023-05-19T10:19:22;96196.66;;;16.28;64.12
62634;BME280;48704;50.534;6.442;2023-05-19T10:21:48;96194.16;;;16.41;63.09
62634;BME280;48704;50.534;6.442;2023-05-19T10:24:13;96189.50;;;16.69;63.78
62634;BME280;48704;50.534;6.442;2023-05-19T10:26:43;96198.66;;;17.18;59.44
62634;BME280;48704;50.534;6.442;2023-05-19T10:29:10;96199.84;;;16.95;61.21
62634;BME280;48704;50.534;6.442;2023-05-19T10:31:37;96193.97;;;16.50;60.50
62634;BME280;48704;50.534;6.442;2023-05-19T10:39:24;96188.53;;;16.84;59.35
62634;BME280;48704;50.534;6.442;2023-05-19T10:42:09;96191.63;;;16.43;61.12
62634;BME280;48704;50.534;6.442;2023-05-19T10:44:45;96186.94;;;17.48;56.46
62634;BME280;48704;50.534;6.442;2023-05-19T10:47:24;96184.97;;;17.76;57.44
62634;BME280;48704;50.534;6.442;2023-05-19T10:49:52;96190.34;;;17.96;57.79
62634;BME280;48704;50.534;6.442;2023-05-19T10:52:18;96191.09;;;18.25;57.82
62634;BME280;48704;50.534;6.442;2023-05-19T10:54:46;96185.88;;;18.74;54.88
62634;BME280;48704;50.534;6.442;2023-05-19T10:57:16;96195.19;;;18.35;53.32
62634;BME280;48704;50.534;6.442;2023-05-19T10:59:41;96192.09;;;18.33;58.36
62634;BME280;48704;50.534;6.442;2023-05-19T11:02:09;96174.56;;;18.85;53.45
62634;BME280;48704;50.534;6.442;2023-05-19T11:04:44;96180.09;;;19.13;53.39
62634;BME280;48704;50.534;6.442;2023-05-19T11:07:18;96178.41;;;19.40;50.19
62634;BME280;48704;50.534;6.442;2023-05-19T11:09:49;96178.38;;;19.51;50.24
62634;BME280;48704;50.534;6.442;2023-05-19T11:12:19;96184.31;;;20.13;53.98
62634;BME280;48704;50.534;6.442;2023-05-19T11:14:44;96178.63;;;20.18;49.38
62634;BME280;48704;50.534;6.442;2023-05-19T11:17:14;96190.72;;;20.19;50.15
62634;BME280;48704;50.534;6.442;2023-05-19T11:19:51;96178.84;;;19.55;47.91
62634;BME280;48704;50.534;6.442;2023-05-19T11:22:16;96182.69;;;20.23;48.44
62634;BME280;48704;50.534;6.442;2023-05-19T11:24:45;96177.28;;;20.25;49.01
62634;BME280;48704;50.534;6.442;2023-05-19T11:27:30;96183.22;;;20.51;48.37
62634;BME280;48704;50.534;6.442;2023-05-19T11:30:01;96189.63;;;19.62;47.72
62634;BME280;48704;50.534;6.442;2023-05-19T11:35:00;96173.13;;;20.01;48.32
62634;BME280;48704;50.534;6.442;2023-05-19T11:37:26;96176.00;;;19.60;49.92
62634;BME280;48704;50.534;6.442;2023-05-19T11:39:55;96178.63;;;20.18;49.32
62634;BME280;48704;50.534;6.442;2023-05-19T11:42:20;96169.66;;;20.44;46.20
62634;BME280;48704;50.534;6.442;2023-05-19T11:44:46;96174.00;;;20.94;45.63
62634;BME280;48704;50.534;6.442;2023-05-19T11:47:14;96167.19;;;21.02;44.42
62634;BME280;48704;50.534;6.442;2023-05-19T11:49:44;96158.97;;;21.23;43.80
62634;BME280;48704;50.534;6.442;2023-05-19T11:52:10;96164.53;;;20.13;46.73
62634;BME280;48704;50.534;6.442;2023-05-19T11:54:35;96164.63;;;20.01;45.90
62634;BME280;48704;50.534;6.442;2023-05-19T11:57:02;96169.53;;;18.33;49.95
62634;BME280;48704;50.534;6.442;2023-05-19T11:59:31;96167.53;;;17.83;52.01
62634;BME280;48704;50.534;6.442;2023-05-19T12:02:00;96167.97;;;19.23;49.67
62634;BME280;48704;50.534;6.442;2023-05-19T12:04:27;96157.69;;;20.02;48.52
62634;BME280;48704;50.534;6.442;2023-05-19T12:06:52;96150.31;;;20.48;46.67
62634;BME280;48704;50.534;6.442;2023-05-19T12:09:18;96144.53;;;20.59;44.84
62634;BME280;48704;50.534;6.442;2023-05-19T12:11:46;96145.25;;;21.09;44.06
62634;BME280;48704;50.534;6.442;2023-05-19T12:14:11;96147.44;;;21.72;43.25
62634;BME280;48704;50.534;6.442;2023-05-19T12:16:37;96143.13;;;21.33;42.43
62634;BME280;48704;50.534;6.442;2023-05-19T12:19:05;96148.84;;;21.97;41.94
62634;BME280;48704;50.534;6.442;2023-05-19T12:21:31;96148.88;;;21.47;44.24
62634;BME280;48704;50.534;6.442;2023-05-19T12:23:57;96155.53;;;22.72;41.27
62634;BME280;48704;50.534;6.442;2023-05-19T12:26:23;96138.78;;;22.28;40.30
62634;BME280;48704;50.534;6.442;2023-05-19T12:28:48;96143.22;;;20.36;44.39
62634;BME280;48704;50.534;6.442;2023-05-19T12:31:15;96150.13;;;22.15;41.56
62634;BME280;48704;50.534;6.442;2023-05-19T12:33:41;96144.84;;;22.64;40.43
62634;BME280;48704;50.534;6.442;2023-05-19T12:36:06;96131.78;;;19.93;44.28
62634;BME280;48704;50.534;6.442;2023-05-19T12:38:32;96129.16;;;21.35;43.10
62634;BME280;48704;50.534;6.442;2023-05-19T12:41:01;96134.19;;;21.05;44.62
62634;BME280;48704;50.534;6.442;2023-05-19T12:43:27;96136.41;;;22.46;40.14
62634;BME280;48704;50.534;6.442;2023-05-19T12:45:52;96123.47;;;21.17;43.60
62634;BME280;48704;50.534;6.442;2023-05-19T12:48:20;96136.16;;;21.34;42.71
62634;BME280;48704;50.534;6.442;2023-05-19T12:50:46;96127.50;;;21.46;41.29
62634;BME280;48704;50.534;6.442;2023-05-19T12:53:13;96132.34;;;21.96;39.60
62634;BME280;48704;50.534;6.442;2023-05-19T12:55:42;96120.97;;;22.28;40.01
62634;BME280;48704;50.534;6.442;2023-05-19T12:58:09;96127.06;;;21.55;40.07
62634;BME280;48704;50.534;6.442;2023-05-19T13:00:45;96126.84;;;22.88;38.64
62634;BME280;48704;50.534;6.442;2023-05-19T13:03:17;96128.44;;;22.44;39.51
62634;BME280;48704;50.534;6.442;2023-05-19T13:05:45;96125.94;;;22.41;39.61
62634;BME280;48704;50.534;6.442;2023-05-19T13:08:13;96124.06;;;23.22;37.53
62634;BME280;48704;50.534;6.442;2023-05-19T13:10:41;96116.88;;;22.95;38.21
62634;BME280;48704;50.534;6.442;2023-05-19T13:13:07;96120.66;;;23.71;37.65
62634;BME280;48704;50.534;6.442;2023-05-19T13:15:36;96125.31;;;24.03;37.45